sensor_id;sensor_type;location;lat;lon;timestamp;temperature;humidity
5334;DHT22;2689;50.954;7.116;2023-09-19T00:00:06;15.90;99.90
5334;DHT22;2689;50.954;7.116;2023-09-19T00:02:38;15.90;99.90
5334;DHT22;2689;50.954;7.116;2023-09-19T00:05:05;16.20;99.90
5334;DHT22;2689;50.954;7.116;2023-09-19T00:07:33;15.90;99.90
5334;DHT22;2689;50.954;7.116;2023-09-19T00:10:02;16.20;99.90
5334;DHT22;2689;50.954;7.116;2023-09-19T00:12:30;16.00;99.90
5334;DHT22;2689;50.954;7.116;2023-09-19T00:14:57;16.00;99.90
5334;DHT22;2689;50.954;7.116;2023-09-19T00:17:27;16.30;99.90
5334;DHT22;2689;50.954;7.116;2023-09-19T00:19:56;16.50;99.90
5334;DHT22;2689;50.954;7.116;2023-09-19T00:22:22;16.40;99.90
5334;DHT22;2689;50.954;7.116;2023-09-19T00:24:51;15.90;99.90
5334;DHT22;2689;50.954;7.116;2023-09-19T00:27:18;16.00;99.90
5334;DHT22;2689;50.954;7.116;2023-09-19T00:29:45;16.00;99.90
5334;DHT22;2689;50.954;7.116;2023-09-19T00:32:12;16.10;99.90
5334;DHT22;2689;50.954;7.116;2023-09-19T00:34:40;16.00;99.90
5334;DHT22;2689;50.954;7.116;2023-09-19T00:37:08;16.00;99.90
5334;DHT22;2689;50.954;7.116;2023-09-19T00:39:36;15.90;99.90
5334;DHT22;2689;50.954;7.116;2023-09-19T00:42:04;16.00;99.90
5334;DHT22;2689;50.954;7.116;2023-09-19T00:44:30;16.00;99.90
5334;DHT22;2689;50.954;7.116;2023-09-19T00:47:00;15.90;99.90
5334;DHT22;2689;50.954;7.116;2023-09-19T00:49:27;16.30;99.90
5334;DHT22;2689;50.954;7.116;2023-09-19T00:51:57;15.90;99.90
5334;DHT22;2689;50.954;7.116;2023-09-19T00:54:25;16.50;99.90
5334;DHT22;2689;50.954;7.116;2023-09-19T00:56:53;15.90;99.90
5334;DHT22;2689;50.954;7.116;2023-09-19T00:59:20;15.90;99.90
5334;DHT22;2689;50.954;7.116;2023-09-19T01:01:48;15.90;99.90
5334;DHT22;2689;50.954;7.116;2023-09-19T01:04:18;15.90;99.90
5334;DHT22;2689;50.954;7.116;2023-09-19T01:06:45;15.90;99.90
5334;DHT22;2689;50.954;7.116;2023-09-19T01:09:13;15.90;99.90
5334;DHT22;2689;50.954;7.116;2023-09-19T01:11:43;16.00;99.90
5334;DHT22;2689;50.954;7.116;2023-09-19T01:14:19;16.30;99.90
5334;DHT22;2689;50.954;7.116;2023-09-19T01:16:53;16.10;99.90
5334;DHT22;2689;50.954;7.116;2023-09-19T01:22:20;16.10;99.90
5334;DHT22;2689;50.954;7.116;2023-09-19T01:28:11;16.70;99.90
5334;DHT22;2689;50.954;7.116;2023-09-19T01:30:44;16.20;99.90
5334;DHT22;2689;50.954;7.116;2023-09-19T01:33:12;16.50;99.90
5334;DHT22;2689;50.954;7.116;2023-09-19T01:35:40;16.40;99.90
5334;DHT22;2689;50.954;7.116;2023-09-19T01:38:07;16.70;99.90
5334;DHT22;2689;50.954;7.116;2023-09-19T01:40:41;16.30;99.90
5334;DHT22;2689;50.954;7.116;2023-09-19T01:43:11;16.30;99.90
5334;DHT22;2689;50.954;7.116;2023-09-19T01:45:46;16.30;99.90
5334;DHT22;2689;50.954;7.116;2023-09-19T01:48:21;16.30;99.90
5334;DHT22;2689;50.954;7.116;2023-09-19T01:50:57;16.30;99.90
5334;DHT22;2689;50.954;7.116;2023-09-19T01:53:27;16.30;99.90
5334;DHT22;2689;50.954;7.116;2023-09-19T01:55:57;16.30;99.90
5334;DHT22;2689;50.954;7.116;2023-09-19T01:58:30;16.50;99.90
5334;DHT22;2689;50.954;7.116;2023-09-19T02:01:01;16.20;99.90
5334;DHT22;2689;50.954;7.116;2023-09-19T02:03:31;16.40;99.90
5334;DHT22;2689;50.954;7.116;2023-09-19T02:05:58;16.20;99.90
5334;DHT22;2689;50.954;7.116;2023-09-19T02:08:26;16.20;99.90
5334;DHT22;2689;50.954;7.116;2023-09-19T02:14:15;16.20;99.90
5334;DHT22;2689;50.954;7.116;2023-09-19T02:16:43;16.10;99.90
5334;DHT22;2689;50.954;7.116;2023-09-19T02:19:10;16.20;99.90
5334;DHT22;2689;50.954;7.116;2023-09-19T02:21:37;16.20;99.90
5334;DHT22;2689;50.954;7.116;2023-09-19T02:24:05;16.40;99.90
5334;DHT22;2689;50.954;7.116;2023-09-19T02:26:33;16.20;99.90
5334;DHT22;2689;50.954;7.116;2023-09-19T02:29:01;16.10;99.90
5334;DHT22;2689;50.954;7.116;2023-09-19T02:31:30;16.20;99.90
5334;DHT22;2689;50.954;7.116;2023-09-19T02:33:58;16.10;99.90
5334;DHT22;2689;50.954;7.116;2023-09-19T02:36:25;16.10;99.90
5334;DHT22;2689;50.954;7.116;2023-09-19T02:38:52;16.20;99.90
5334;DHT22;2689;50.954;7.116;2023-09-19T02:41:19;16.10;99.90
5334;DHT22;2689;50.954;7.116;2023-09-19T02:43:45;16.70;99.90
5334;DHT22;2689;50.954;7.116;2023-09-19T02:46:13;16.10;99.90
5334;DHT22;2689;50.954;7.116;2023-09-19T02:48:39;16.10;99.90
5334;DHT22;2689;50.954;7.116;2023-09-19T02:51:08;16.10;99.90
5334;DHT22;2689;50.954;7.116;2023-09-19T02:53:35;16.10;99.90
5334;DHT22;2689;50.954;7.116;2023-09-19T02:56:02;16.00;99.90
5334;DHT22;2689;50.954;7.116;2023-09-19T02:58:29;16.00;99.90
5334;DHT22;2689;50.954;7.116;2023-09-19T03:01:08;16.00;99.90
5334;DHT22;2689;50.954;7.116;2023-09-19T03:03:35;15.90;99.90
5334;DHT22;2689;50.954;7.116;2023-09-19T03:06:03;15.90;99.90
5334;DHT22;2689;50.954;7.116;2023-09-19T03:08:31;15.90;99.90
5334;DHT22;2689;50.954;7.116;2023-09-19T03:11:03;15.90;99.90
5334;DHT22;2689;50.954;7.116;2023-09-19T03:13:31;15.90;99.90
5334;DHT22;2689;50.954;7.116;2023-09-19T03:15:58;15.80;99.90
5334;DHT22;2689;50.954;7.116;2023-09-19T03:18:24;15.80;99.90
5334;DHT22;2689;50.954;7.116;2023-09-19T03:20:53;16.30;99.90
5334;DHT22;2689;50.954;7.116;2023-09-19T03:23:21;15.80;99.90
5334;DHT22;2689;50.954;7.116;2023-09-19T03:25:49;16.30;99.90
5334;DHT22;2689;50.954;7.116;2023-09-19T03:28:16;15.80;99.90
5334;DHT22;2689;50.954;7.116;2023-09-19T03:30:43;15.80;99.90
5334;DHT22;2689;50.954;7.116;2023-09-19T03:33:11;15.70;99.90
5334;DHT22;2689;50.954;7.116;2023-09-19T03:35:39;15.70;99.90
5334;DHT22;2689;50.954;7.116;2023-09-19T03:38:06;15.70;99.90
5334;DHT22;2689;50.954;7.116;2023-09-19T03:40:33;15.70;99.90
5334;DHT22;2689;50.954;7.116;2023-09-19T03:43:04;15.70;99.90
5334;DHT22;2689;50.954;7.116;2023-09-19T03:45:31;15.70;99.90
5334;DHT22;2689;50.954;7.116;2023-09-19T03:47:58;15.90;99.90
5334;DHT22;2689;50.954;7.116;2023-09-19T03:50:25;15.70;99.90
5334;DHT22;2689;50.954;7.116;2023-09-19T03:52:56;16.30;99.90
5334;DHT22;2689;50.954;7.116;2023-09-19T03:55:23;15.70;99.90
5334;DHT22;2689;50.954;7.116;2023-09-19T03:57:49;15.60;99.90
5334;DHT22;2689;50.954;7.116;2023-09-19T04:00:18;15.90;99.90
5334;DHT22;2689;50.954;7.116;2023-09-19T04:02:47;16.10;99.90
5334;DHT22;2689;50.954;7.116;2023-09-19T04:05:13;15.50;99.90
5334;DHT22;2689;50.954;7.116;2023-09-19T04:07:40;15.50;99.90
5334;DHT22;2689;50.954;7.116;2023-09-19T04:10:08;15.50;99.90
5334;DHT22;2689;50.954;7.116;2023-09-19T04:12:37;15.50;99.90
5334;DHT22;2689;50.954;7.116;2023-09-19T04:15:05;15.50;99.90
5334;DHT22;2689;50.954;7.116;2023-09-19T04:17:33;15.40;99.90
5334;DHT22;2689;50.954;7.116;2023-09-19T04:20:00;15.40;99.90
5334;DHT22;2689;50.954;7.116;2023-09-19T04:22:29;15.40;99.90
5334;DHT22;2689;50.954;7.116;2023-09-19T04:24:56;16.00;99.90
5334;DHT22;2689;50.954;7.116;2023-09-19T04:27:23;15.40;99.90
5334;DHT22;2689;50.954;7.116;2023-09-19T04:29:51;15.40;99.90
5334;DHT22;2689;50.954;7.116;2023-09-19T04:32:18;15.30;99.90
5334;DHT22;2689;50.954;7.116;2023-09-19T04:34:46;15.40;99.90
5334;DHT22;2689;50.954;7.116;2023-09-19T04:37:15;15.30;99.90
5334;DHT22;2689;50.954;7.116;2023-09-19T04:39:42;15.30;99.90
5334;DHT22;2689;50.954;7.116;2023-09-19T04:42:09;15.20;99.90
5334;DHT22;2689;50.954;7.116;2023-09-19T04:44:37;15.30;99.90
5334;DHT22;2689;50.954;7.116;2023-09-19T04:47:04;15.20;99.90
5334;DHT22;2689;50.954;7.116;2023-09-19T04:49:31;15.20;99.90
5334;DHT22;2689;50.954;7.116;2023-09-19T04:51:59;15.20;99.90
5334;DHT22;2689;50.954;7.116;2023-09-19T04:54:26;15.10;99.90
5334;DHT22;2689;50.954;7.116;2023-09-19T04:56:53;15.10;99.90
5334;DHT22;2689;50.954;7.116;2023-09-19T04:59:20;15.20;99.90
5334;DHT22;2689;50.954;7.116;2023-09-19T05:01:46;15.20;99.90
5334;DHT22;2689;50.954;7.116;2023-09-19T05:04:13;15.20;99.90
5334;DHT22;2689;50.954;7.116;2023-09-19T05:06:40;15.10;99.90
5334;DHT22;2689;50.954;7.116;2023-09-19T05:09:08;15.60;99.90
5334;DHT22;2689;50.954;7.116;2023-09-19T05:11:35;15.10;99.90
5334;DHT22;2689;50.954;7.116;2023-09-19T05:14:03;15.10;99.90
5334;DHT22;2689;50.954;7.116;2023-09-19T05:16:30;15.10;99.90
5334;DHT22;2689;50.954;7.116;2023-09-19T05:18:57;15.10;99.90
5334;DHT22;2689;50.954;7.116;2023-09-19T05:21:25;15.10;99.90
5334;DHT22;2689;50.954;7.116;2023-09-19T05:23:54;15.10;99.90
5334;DHT22;2689;50.954;7.116;2023-09-19T05:26:22;15.10;99.90
5334;DHT22;2689;50.954;7.116;2023-09-19T05:28:49;15.00;99.90
5334;DHT22;2689;50.954;7.116;2023-09-19T05:31:16;15.10;99.90
5334;DHT22;2689;50.954;7.116;2023-09-19T05:33:43;15.70;99.90
5334;DHT22;2689;50.954;7.116;2023-09-19T05:36:09;15.00;99.90
5334;DHT22;2689;50.954;7.116;2023-09-19T05:38:37;15.00;99.90
5334;DHT22;2689;50.954;7.116;2023-09-19T05:41:07;14.90;99.90
5334;DHT22;2689;50.954;7.116;2023-09-19T05:43:36;14.90;99.90
5334;DHT22;2689;50.954;7.116;2023-09-19T05:46:02;15.00;99.90
5334;DHT22;2689;50.954;7.116;2023-09-19T05:48:29;14.90;99.90
5334;DHT22;2689;50.954;7.116;2023-09-19T05:50:56;15.00;99.90
5334;DHT22;2689;50.954;7.116;2023-09-19T05:53:23;14.90;99.90
5334;DHT22;2689;50.954;7.116;2023-09-19T05:55:50;14.90;99.90
5334;DHT22;2689;50.954;7.116;2023-09-19T05:58:18;14.80;99.90
5334;DHT22;2689;50.954;7.116;2023-09-19T06:00:47;14.80;99.90
5334;DHT22;2689;50.954;7.116;2023-09-19T06:03:14;14.80;99.90
5334;DHT22;2689;50.954;7.116;2023-09-19T06:05:43;14.80;99.90
5334;DHT22;2689;50.954;7.116;2023-09-19T06:08:11;14.80;99.90
5334;DHT22;2689;50.954;7.116;2023-09-19T06:10:38;14.80;99.90
5334;DHT22;2689;50.954;7.116;2023-09-19T06:13:05;14.90;99.90
5334;DHT22;2689;50.954;7.116;2023-09-19T06:15:35;15.20;99.90
5334;DHT22;2689;50.954;7.116;2023-09-19T06:18:04;14.90;99.90
5334;DHT22;2689;50.954;7.116;2023-09-19T06:20:31;14.90;99.90
5334;DHT22;2689;50.954;7.116;2023-09-19T06:22:58;15.00;99.90
5334;DHT22;2689;50.954;7.116;2023-09-19T06:25:29;14.90;99.90
5334;DHT22;2689;50.954;7.116;2023-09-19T06:27:56;14.90;99.90
5334;DHT22;2689;50.954;7.116;2023-09-19T06:30:24;15.50;99.90
5334;DHT22;2689;50.954;7.116;2023-09-19T06:32:55;15.00;99.90
5334;DHT22;2689;50.954;7.116;2023-09-19T06:35:24;15.10;99.90
5334;DHT22;2689;50.954;7.116;2023-09-19T06:37:51;15.00;99.90
5334;DHT22;2689;50.954;7.116;2023-09-19T06:40:19;15.40;99.90
5334;DHT22;2689;50.954;7.116;2023-09-19T06:42:47;15.20;99.90
5334;DHT22;2689;50.954;7.116;2023-09-19T06:45:17;15.20;99.90
5334;DHT22;2689;50.954;7.116;2023-09-19T06:47:44;15.30;99.90
5334;DHT22;2689;50.954;7.116;2023-09-19T06:50:11;15.30;99.90
5334;DHT22;2689;50.954;7.116;2023-09-19T06:52:41;15.40;99.90
5334;DHT22;2689;50.954;7.116;2023-09-19T06:55:08;15.40;99.90
5334;DHT22;2689;50.954;7.116;2023-09-19T06:57:38;15.40;99.90
5334;DHT22;2689;50.954;7.116;2023-09-19T07:00:07;15.50;99.90
5334;DHT22;2689;50.954;7.116;2023-09-19T07:02:40;15.60;99.90
5334;DHT22;2689;50.954;7.116;2023-09-19T07:05:07;15.70;99.90
5334;DHT22;2689;50.954;7.116;2023-09-19T07:07:34;15.80;99.90
5334;DHT22;2689;50.954;7.116;2023-09-19T07:10:03;16.00;99.90
5334;DHT22;2689;50.954;7.116;2023-09-19T07:12:31;15.90;99.90
5334;DHT22;2689;50.954;7.116;2023-09-19T07:14:58;16.30;99.90
5334;DHT22;2689;50.954;7.116;2023-09-19T07:17:25;16.00;99.90
5334;DHT22;2689;50.954;7.116;2023-09-19T07:19:53;16.20;99.90
5334;DHT22;2689;50.954;7.116;2023-09-19T07:22:20;16.30;99.90
5334;DHT22;2689;50.954;7.116;2023-09-19T07:24:48;16.40;99.90
5334;DHT22;2689;50.954;7.116;2023-09-19T07:27:16;16.50;99.90
5334;DHT22;2689;50.954;7.116;2023-09-19T07:29:43;16.70;99.90
5334;DHT22;2689;50.954;7.116;2023-09-19T07:32:11;16.90;99.90
5334;DHT22;2689;50.954;7.116;2023-09-19T07:34:38;17.10;99.90
5334;DHT22;2689;50.954;7.116;2023-09-19T07:37:06;17.10;99.90
5334;DHT22;2689;50.954;7.116;2023-09-19T07:39:33;17.20;99.90
5334;DHT22;2689;50.954;7.116;2023-09-19T07:42:00;17.40;99.90
5334;DHT22;2689;50.954;7.116;2023-09-19T07:44:28;17.50;99.90
5334;DHT22;2689;50.954;7.116;2023-09-19T07:46:55;17.90;99.90
5334;DHT22;2689;50.954;7.116;2023-09-19T07:49:22;18.00;99.00
5334;DHT22;2689;50.954;7.116;2023-09-19T07:51:49;18.30;99.30
5334;DHT22;2689;50.954;7.116;2023-09-19T07:54:15;18.40;97.20
5334;DHT22;2689;50.954;7.116;2023-09-19T07:56:42;18.60;96.60
5334;DHT22;2689;50.954;7.116;2023-09-19T07:59:11;18.80;96.40
5334;DHT22;2689;50.954;7.116;2023-09-19T08:01:40;19.20;95.80
5334;DHT22;2689;50.954;7.116;2023-09-19T08:04:08;19.70;94.20
5334;DHT22;2689;50.954;7.116;2023-09-19T08:06:35;20.20;93.40
5334;DHT22;2689;50.954;7.116;2023-09-19T08:09:03;20.40;92.50
5334;DHT22;2689;50.954;7.116;2023-09-19T08:11:33;20.80;90.50
5334;DHT22;2689;50.954;7.116;2023-09-19T08:14:00;21.00;90.40
5334;DHT22;2689;50.954;7.116;2023-09-19T08:16:26;21.30;86.70
5334;DHT22;2689;50.954;7.116;2023-09-19T08:18:55;20.80;85.40
5334;DHT22;2689;50.954;7.116;2023-09-19T08:21:21;20.80;87.10
5334;DHT22;2689;50.954;7.116;2023-09-19T08:23:49;20.90;84.80
5334;DHT22;2689;50.954;7.116;2023-09-19T08:26:16;20.90;86.00
5334;DHT22;2689;50.954;7.116;2023-09-19T08:28:43;21.20;84.70
5334;DHT22;2689;50.954;7.116;2023-09-19T08:31:10;21.90;85.30
5334;DHT22;2689;50.954;7.116;2023-09-19T08:33:37;21.60;84.20
5334;DHT22;2689;50.954;7.116;2023-09-19T08:36:06;21.80;83.40
5334;DHT22;2689;50.954;7.116;2023-09-19T08:38:35;22.30;81.60
5334;DHT22;2689;50.954;7.116;2023-09-19T08:41:06;22.50;79.30
5334;DHT22;2689;50.954;7.116;2023-09-19T08:43:34;22.40;78.30
5334;DHT22;2689;50.954;7.116;2023-09-19T08:46:08;22.40;77.10
5334;DHT22;2689;50.954;7.116;2023-09-19T08:48:39;22.20;77.60
5334;DHT22;2689;50.954;7.116;2023-09-19T08:51:15;22.30;78.00
5334;DHT22;2689;50.954;7.116;2023-09-19T08:53:50;21.50;77.80
5334;DHT22;2689;50.954;7.116;2023-09-19T08:56:18;21.60;79.90
5334;DHT22;2689;50.954;7.116;2023-09-19T08:58:49;21.90;79.20
5334;DHT22;2689;50.954;7.116;2023-09-19T09:01:18;22.10;78.10
5334;DHT22;2689;50.954;7.116;2023-09-19T09:03:51;22.50;79.10
5334;DHT22;2689;50.954;7.116;2023-09-19T09:06:21;22.90;76.30
5334;DHT22;2689;50.954;7.116;2023-09-19T09:08:49;22.70;74.40
5334;DHT22;2689;50.954;7.116;2023-09-19T09:11:17;22.30;73.20
5334;DHT22;2689;50.954;7.116;2023-09-19T09:13:44;22.50;76.40
5334;DHT22;2689;50.954;7.116;2023-09-19T09:16:11;23.00;75.80
5334;DHT22;2689;50.954;7.116;2023-09-19T09:18:39;23.60;72.20
5334;DHT22;2689;50.954;7.116;2023-09-19T09:21:06;23.80;71.30
5334;DHT22;2689;50.954;7.116;2023-09-19T09:23:34;23.50;70.40
5334;DHT22;2689;50.954;7.116;2023-09-19T09:26:01;23.20;73.30
5334;DHT22;2689;50.954;7.116;2023-09-19T09:28:31;23.80;69.90
5334;DHT22;2689;50.954;7.116;2023-09-19T09:30:59;23.80;68.90
5334;DHT22;2689;50.954;7.116;2023-09-19T09:33:28;24.10;69.00
5334;DHT22;2689;50.954;7.116;2023-09-19T09:35:56;24.50;67.20
5334;DHT22;2689;50.954;7.116;2023-09-19T09:38:27;24.90;66.20
5334;DHT22;2689;50.954;7.116;2023-09-19T09:41:00;25.10;65.80
5334;DHT22;2689;50.954;7.116;2023-09-19T09:43:33;24.90;64.50
5334;DHT22;2689;50.954;7.116;2023-09-19T09:46:14;25.80;65.20
5334;DHT22;2689;50.954;7.116;2023-09-19T09:49:00;26.60;60.50
5334;DHT22;2689;50.954;7.116;2023-09-19T09:51:59;26.70;58.50
5334;DHT22;2689;50.954;7.116;2023-09-19T09:54:28;26.90;58.70
5334;DHT22;2689;50.954;7.116;2023-09-19T09:57:04;26.80;58.00
5334;DHT22;2689;50.954;7.116;2023-09-19T09:59:48;26.00;58.10
5334;DHT22;2689;50.954;7.116;2023-09-19T10:02:15;26.00;58.30
5334;DHT22;2689;50.954;7.116;2023-09-19T10:04:49;26.10;58.80
5334;DHT22;2689;50.954;7.116;2023-09-19T10:07:28;25.40;58.30
5334;DHT22;2689;50.954;7.116;2023-09-19T10:09:59;24.50;59.70
5334;DHT22;2689;50.954;7.116;2023-09-19T10:12:38;23.80;61.70
5334;DHT22;2689;50.954;7.116;2023-09-19T10:15:08;23.50;63.30
5334;DHT22;2689;50.954;7.116;2023-09-19T10:17:40;22.60;64.00
5334;DHT22;2689;50.954;7.116;2023-09-19T10:20:12;22.10;65.90
5334;DHT22;2689;50.954;7.116;2023-09-19T10:22:59;22.10;67.80
5334;DHT22;2689;50.954;7.116;2023-09-19T10:25:27;22.30;68.10
5334;DHT22;2689;50.954;7.116;2023-09-19T10:27:57;22.40;68.80
5334;DHT22;2689;50.954;7.116;2023-09-19T10:30:29;23.00;68.20
5334;DHT22;2689;50.954;7.116;2023-09-19T10:33:00;22.80;67.60
5334;DHT22;2689;50.954;7.116;2023-09-19T10:35:28;22.80;67.60
5334;DHT22;2689;50.954;7.116;2023-09-19T10:37:59;23.30;66.80
5334;DHT22;2689;50.954;7.116;2023-09-19T10:40:27;22.90;67.30
5334;DHT22;2689;50.954;7.116;2023-09-19T10:43:02;22.70;67.50
5334;DHT22;2689;50.954;7.116;2023-09-19T10:45:33;22.70;68.30
5334;DHT22;2689;50.954;7.116;2023-09-19T10:48:01;22.50;68.60
5334;DHT22;2689;50.954;7.116;2023-09-19T10:50:31;22.20;68.00
5334;DHT22;2689;50.954;7.116;2023-09-19T10:53:02;22.20;69.70
5334;DHT22;2689;50.954;7.116;2023-09-19T10:55:33;22.40;68.60
5334;DHT22;2689;50.954;7.116;2023-09-19T10:58:04;22.40;70.20
5334;DHT22;2689;50.954;7.116;2023-09-19T11:00:53;22.80;68.60
5334;DHT22;2689;50.954;7.116;2023-09-19T11:03:21;23.30;67.30
5334;DHT22;2689;50.954;7.116;2023-09-19T11:06:03;22.70;66.70
5334;DHT22;2689;50.954;7.116;2023-09-19T11:08:59;22.90;66.70
5334;DHT22;2689;50.954;7.116;2023-09-19T11:11:52;22.90;67.30
5334;DHT22;2689;50.954;7.116;2023-09-19T11:14:41;22.70;65.30
5334;DHT22;2689;50.954;7.116;2023-09-19T11:17:40;22.20;67.80
5334;DHT22;2689;50.954;7.116;2023-09-19T11:20:30;22.20;70.40
5334;DHT22;2689;50.954;7.116;2023-09-19T11:23:22;22.40;68.20
5334;DHT22;2689;50.954;7.116;2023-09-19T11:25:53;22.30;67.60
5334;DHT22;2689;50.954;7.116;2023-09-19T11:28:33;22.00;68.90
5334;DHT22;2689;50.954;7.116;2023-09-19T11:34:39;22.10;67.10
5334;DHT22;2689;50.954;7.116;2023-09-19T11:40:28;23.20;66.60
5334;DHT22;2689;50.954;7.116;2023-09-19T11:42:56;23.00;65.80
5334;DHT22;2689;50.954;7.116;2023-09-19T11:48:29;22.60;65.30
5334;DHT22;2689;50.954;7.116;2023-09-19T11:51:00;22.50;65.70
5334;DHT22;2689;50.954;7.116;2023-09-19T11:53:33;22.50;67.30
5334;DHT22;2689;50.954;7.116;2023-09-19T11:56:09;22.20;67.70
5334;DHT22;2689;50.954;7.116;2023-09-19T11:58:38;22.10;66.60
5334;DHT22;2689;50.954;7.116;2023-09-19T12:01:08;22.00;66.40
5334;DHT22;2689;50.954;7.116;2023-09-19T12:03:43;22.00;66.40
5334;DHT22;2689;50.954;7.116;2023-09-19T12:06:16;22.20;68.10
5334;DHT22;2689;50.954;7.116;2023-09-19T12:08:45;21.70;68.30
5334;DHT22;2689;50.954;7.116;2023-09-19T12:11:17;21.70;67.70
5334;DHT22;2689;50.954;7.116;2023-09-19T12:13:51;22.10;66.80
5334;DHT22;2689;50.954;7.116;2023-09-19T12:16:20;22.40;65.70
5334;DHT22;2689;50.954;7.116;2023-09-19T12:18:49;23.10;64.70
5334;DHT22;2689;50.954;7.116;2023-09-19T12:21:28;23.50;63.70
5334;DHT22;2689;50.954;7.116;2023-09-19T12:24:05;23.40;64.00
5334;DHT22;2689;50.954;7.116;2023-09-19T12:26:40;23.80;64.10
5334;DHT22;2689;50.954;7.116;2023-09-19T12:29:21;24.10;61.70
5334;DHT22;2689;50.954;7.116;2023-09-19T12:31:57;24.70;59.40
5334;DHT22;2689;50.954;7.116;2023-09-19T12:34:30;24.50;59.70
5334;DHT22;2689;50.954;7.116;2023-09-19T12:37:06;25.10;59.10
5334;DHT22;2689;50.954;7.116;2023-09-19T12:39:41;25.80;58.00
5334;DHT22;2689;50.954;7.116;2023-09-19T12:42:42;26.00;56.10
5334;DHT22;2689;50.954;7.116;2023-09-19T12:45:10;26.40;54.90
5334;DHT22;2689;50.954;7.116;2023-09-19T12:48:20;26.80;53.70
5334;DHT22;2689;50.954;7.116;2023-09-19T12:51:02;26.30;54.00
5334;DHT22;2689;50.954;7.116;2023-09-19T12:53:33;25.60;55.20
5334;DHT22;2689;50.954;7.116;2023-09-19T12:56:03;25.30;56.60
5334;DHT22;2689;50.954;7.116;2023-09-19T12:58:33;24.90;57.50
5334;DHT22;2689;50.954;7.116;2023-09-19T13:01:01;24.80;57.60
5334;DHT22;2689;50.954;7.116;2023-09-19T13:03:29;25.10;57.90
5334;DHT22;2689;50.954;7.116;2023-09-19T13:06:01;24.90;57.40
5334;DHT22;2689;50.954;7.116;2023-09-19T13:08:30;24.50;56.50
5334;DHT22;2689;50.954;7.116;2023-09-19T13:11:10;24.60;57.60
5334;DHT22;2689;50.954;7.116;2023-09-19T13:13:43;24.30;58.10
5334;DHT22;2689;50.954;7.116;2023-09-19T13:16:12;24.30;58.30
5334;DHT22;2689;50.954;7.116;2023-09-19T13:18:46;24.60;58.30
5334;DHT22;2689;50.954;7.116;2023-09-19T13:21:13;24.90;59.40
5334;DHT22;2689;50.954;7.116;2023-09-19T13:23:50;24.50;57.60
5334;DHT22;2689;50.954;7.116;2023-09-19T13:26:18;24.10;58.50
5334;DHT22;2689;50.954;7.116;2023-09-19T13:28:45;24.50;57.90
5334;DHT22;2689;50.954;7.116;2023-09-19T13:31:13;24.30;57.50
5334;DHT22;2689;50.954;7.116;2023-09-19T13:33:43;24.00;58.90
5334;DHT22;2689;50.954;7.116;2023-09-19T13:36:24;24.20;59.90
5334;DHT22;2689;50.954;7.116;2023-09-19T13:38:51;24.70;59.10
5334;DHT22;2689;50.954;7.116;2023-09-19T13:41:20;24.60;58.90
5334;DHT22;2689;50.954;7.116;2023-09-19T13:43:47;24.10;58.60
5334;DHT22;2689;50.954;7.116;2023-09-19T13:46:14;24.80;59.30
5334;DHT22;2689;50.954;7.116;2023-09-19T13:48:42;24.50;58.90
5334;DHT22;2689;50.954;7.116;2023-09-19T13:51:08;25.50;60.20
5334;DHT22;2689;50.954;7.116;2023-09-19T13:53:36;25.30;58.00
5334;DHT22;2689;50.954;7.116;2023-09-19T13:56:03;25.10;57.30
5334;DHT22;2689;50.954;7.116;2023-09-19T13:58:31;24.70;57.00
5334;DHT22;2689;50.954;7.116;2023-09-19T14:00:59;24.40;58.50
5334;DHT22;2689;50.954;7.116;2023-09-19T14:03:26;24.80;59.10
5334;DHT22;2689;50.954;7.116;2023-09-19T14:05:53;24.40;59.10
5334;DHT22;2689;50.954;7.116;2023-09-19T14:08:20;24.10;58.50
5334;DHT22;2689;50.954;7.116;2023-09-19T14:10:47;24.60;58.30
5334;DHT22;2689;50.954;7.116;2023-09-19T14:13:14;24.50;58.10
5334;DHT22;2689;50.954;7.116;2023-09-19T14:15:42;24.10;58.60
5334;DHT22;2689;50.954;7.116;2023-09-19T14:18:09;24.30;59.00
5334;DHT22;2689;50.954;7.116;2023-09-19T14:20:38;24.00;59.00
5334;DHT22;2689;50.954;7.116;2023-09-19T14:23:06;23.70;60.00
5334;DHT22;2689;50.954;7.116;2023-09-19T14:25:34;23.40;60.70
5334;DHT22;2689;50.954;7.116;2023-09-19T14:28:01;22.70;61.30
5334;DHT22;2689;50.954;7.116;2023-09-19T14:30:28;22.50;62.40
5334;DHT22;2689;50.954;7.116;2023-09-19T14:32:57;22.40;63.90
5334;DHT22;2689;50.954;7.116;2023-09-19T14:35:24;22.50;64.60
5334;DHT22;2689;50.954;7.116;2023-09-19T14:37:51;22.40;64.30
5334;DHT22;2689;50.954;7.116;2023-09-19T14:40:18;21.90;65.10
5334;DHT22;2689;50.954;7.116;2023-09-19T14:42:46;21.60;66.00
5334;DHT22;2689;50.954;7.116;2023-09-19T14:45:14;21.70;65.90
5334;DHT22;2689;50.954;7.116;2023-09-19T14:47:43;21.60;66.30
5334;DHT22;2689;50.954;7.116;2023-09-19T14:50:12;21.40;65.80
5334;DHT22;2689;50.954;7.116;2023-09-19T14:52:41;21.40;66.10
5334;DHT22;2689;50.954;7.116;2023-09-19T14:55:09;21.40;66.50
5334;DHT22;2689;50.954;7.116;2023-09-19T14:57:40;21.40;66.60
5334;DHT22;2689;50.954;7.116;2023-09-19T15:00:11;21.40;67.40
5334;DHT22;2689;50.954;7.116;2023-09-19T15:02:38;21.40;67.40
5334;DHT22;2689;50.954;7.116;2023-09-19T15:05:06;21.80;67.60
5334;DHT22;2689;50.954;7.116;2023-09-19T15:07:36;21.60;67.00
5334;DHT22;2689;50.954;7.116;2023-09-19T15:10:04;21.90;66.60
5334;DHT22;2689;50.954;7.116;2023-09-19T15:12:35;22.00;66.70
5334;DHT22;2689;50.954;7.116;2023-09-19T15:15:03;22.10;66.10
5334;DHT22;2689;50.954;7.116;2023-09-19T15:17:32;21.90;65.90
5334;DHT22;2689;50.954;7.116;2023-09-19T15:19:59;21.90;66.10
5334;DHT22;2689;50.954;7.116;2023-09-19T15:22:27;21.60;66.40
5334;DHT22;2689;50.954;7.116;2023-09-19T15:24:55;21.50;66.90
5334;DHT22;2689;50.954;7.116;2023-09-19T15:27:22;21.40;68.00
5334;DHT22;2689;50.954;7.116;2023-09-19T15:29:50;21.70;68.50
5334;DHT22;2689;50.954;7.116;2023-09-19T15:32:17;21.30;67.80
5334;DHT22;2689;50.954;7.116;2023-09-19T15:34:44;21.50;68.80
5334;DHT22;2689;50.954;7.116;2023-09-19T15:37:12;21.00;68.80
5334;DHT22;2689;50.954;7.116;2023-09-19T15:39:39;20.90;68.60
5334;DHT22;2689;50.954;7.116;2023-09-19T15:42:09;20.90;69.40
5334;DHT22;2689;50.954;7.116;2023-09-19T15:44:36;20.80;69.10
5334;DHT22;2689;50.954;7.116;2023-09-19T15:47:03;20.80;69.30
5334;DHT22;2689;50.954;7.116;2023-09-19T15:49:30;20.80;68.70
5334;DHT22;2689;50.954;7.116;2023-09-19T15:51:58;20.80;69.30
5334;DHT22;2689;50.954;7.116;2023-09-19T15:54:25;20.80;68.60
5334;DHT22;2689;50.954;7.116;2023-09-19T15:56:53;20.90;69.10
5334;DHT22;2689;50.954;7.116;2023-09-19T15:59:36;20.90;69.40
5334;DHT22;2689;50.954;7.116;2023-09-19T16:02:03;20.60;69.30
5334;DHT22;2689;50.954;7.116;2023-09-19T16:04:30;20.70;69.30
5334;DHT22;2689;50.954;7.116;2023-09-19T16:06:57;20.60;69.20
5334;DHT22;2689;50.954;7.116;2023-09-19T16:09:24;20.70;69.70
5334;DHT22;2689;50.954;7.116;2023-09-19T16:11:51;20.70;69.30
5334;DHT22;2689;50.954;7.116;2023-09-19T16:14:18;20.70;69.70
5334;DHT22;2689;50.954;7.116;2023-09-19T16:16:46;20.70;69.80
5334;DHT22;2689;50.954;7.116;2023-09-19T16:19:14;20.70;69.90
5334;DHT22;2689;50.954;7.116;2023-09-19T16:21:43;20.60;69.70
5334;DHT22;2689;50.954;7.116;2023-09-19T16:24:10;20.70;69.80
5334;DHT22;2689;50.954;7.116;2023-09-19T16:26:37;20.60;70.30
5334;DHT22;2689;50.954;7.116;2023-09-19T16:29:04;20.70;70.10
5334;DHT22;2689;50.954;7.116;2023-09-19T16:31:32;20.60;70.00
5334;DHT22;2689;50.954;7.116;2023-09-19T16:34:02;20.60;70.30
5334;DHT22;2689;50.954;7.116;2023-09-19T16:36:35;20.70;70.00